sensor_id;sensor_type;location;lat;lon;timestamp;temperature;humidity
16736;DHT22;17990;49.548;9.730;2023-11-21T00:02:26;9.10;99.90
16736;DHT22;17990;49.548;9.730;2023-11-21T00:04:53;9.10;99.90
16736;DHT22;17990;49.548;9.730;2023-11-21T00:07:20;9.10;99.90
16736;DHT22;17990;49.548;9.730;2023-11-21T00:09:48;9.10;99.90
16736;DHT22;17990;49.548;9.730;2023-11-21T00:12:14;9.00;99.90
16736;DHT22;17990;49.548;9.730;2023-11-21T00:14:42;9.00;99.90
16736;DHT22;17990;49.548;9.730;2023-11-21T00:17:09;8.90;99.90
16736;DHT22;17990;49.548;9.730;2023-11-21T00:19:37;8.90;99.90
16736;DHT22;17990;49.548;9.730;2023-11-21T00:22:03;8.90;99.90
16736;DHT22;17990;49.548;9.730;2023-11-21T00:24:31;8.90;99.90
16736;DHT22;17990;49.548;9.730;2023-11-21T00:26:58;8.90;99.90
16736;DHT22;17990;49.548;9.730;2023-11-21T00:29:25;8.90;99.90
16736;DHT22;17990;49.548;9.730;2023-11-21T00:31:52;8.90;99.90
16736;DHT22;17990;49.548;9.730;2023-11-21T00:34:19;8.90;99.90
16736;DHT22;17990;49.548;9.730;2023-11-21T00:36:47;8.90;99.90
16736;DHT22;17990;49.548;9.730;2023-11-21T00:39:14;8.90;99.90
16736;DHT22;17990;49.548;9.730;2023-11-21T00:41:41;9.00;99.90
16736;DHT22;17990;49.548;9.730;2023-11-21T00:44:07;8.90;99.90
16736;DHT22;17990;49.548;9.730;2023-11-21T00:46:34;8.90;99.90
16736;DHT22;17990;49.548;9.730;2023-11-21T00:49:01;8.90;99.90
16736;DHT22;17990;49.548;9.730;2023-11-21T00:51:29;9.00;99.90
16736;DHT22;17990;49.548;9.730;2023-11-21T00:53:57;8.90;99.90
16736;DHT22;17990;49.548;9.730;2023-11-21T00:56:24;8.90;99.90
16736;DHT22;17990;49.548;9.730;2023-11-21T00:58:51;8.90;99.90
16736;DHT22;17990;49.548;9.730;2023-11-21T01:01:19;8.90;99.90
16736;DHT22;17990;49.548;9.730;2023-11-21T01:03:46;8.90;99.90
16736;DHT22;17990;49.548;9.730;2023-11-21T01:06:13;8.90;99.90
16736;DHT22;17990;49.548;9.730;2023-11-21T01:08:40;8.90;99.90
16736;DHT22;17990;49.548;9.730;2023-11-21T01:11:08;8.90;99.90
16736;DHT22;17990;49.548;9.730;2023-11-21T01:13:37;8.90;99.90
16736;DHT22;17990;49.548;9.730;2023-11-21T01:16:05;8.90;99.90
16736;DHT22;17990;49.548;9.730;2023-11-21T01:18:32;8.90;99.90
16736;DHT22;17990;49.548;9.730;2023-11-21T01:20:59;8.90;99.90
16736;DHT22;17990;49.548;9.730;2023-11-21T01:23:26;8.90;99.90
16736;DHT22;17990;49.548;9.730;2023-11-21T01:25:55;8.90;99.90
16736;DHT22;17990;49.548;9.730;2023-11-21T01:28:23;8.90;99.90
16736;DHT22;17990;49.548;9.730;2023-11-21T01:30:50;8.90;99.90
16736;DHT22;17990;49.548;9.730;2023-11-21T01:33:17;8.90;99.90
16736;DHT22;17990;49.548;9.730;2023-11-21T01:35:44;8.90;99.90
16736;DHT22;17990;49.548;9.730;2023-11-21T01:38:11;8.80;99.90
16736;DHT22;17990;49.548;9.730;2023-11-21T01:40:39;8.80;99.90
16736;DHT22;17990;49.548;9.730;2023-11-21T01:43:06;8.80;99.90
16736;DHT22;17990;49.548;9.730;2023-11-21T01:45:35;8.80;99.90
16736;DHT22;17990;49.548;9.730;2023-11-21T01:48:02;8.80;99.90
16736;DHT22;17990;49.548;9.730;2023-11-21T01:50:33;8.80;99.90
16736;DHT22;17990;49.548;9.730;2023-11-21T01:53:00;8.70;99.90
16736;DHT22;17990;49.548;9.730;2023-11-21T01:55:27;8.70;99.90
16736;DHT22;17990;49.548;9.730;2023-11-21T01:57:55;8.70;99.90
16736;DHT22;17990;49.548;9.730;2023-11-21T02:00:22;8.70;99.90
16736;DHT22;17990;49.548;9.730;2023-11-21T02:02:51;8.80;99.90
16736;DHT22;17990;49.548;9.730;2023-11-21T02:05:19;8.70;99.90
16736;DHT22;17990;49.548;9.730;2023-11-21T02:07:47;8.70;99.90
16736;DHT22;17990;49.548;9.730;2023-11-21T02:10:14;8.60;99.90
16736;DHT22;17990;49.548;9.730;2023-11-21T02:12:41;8.70;99.90
16736;DHT22;17990;49.548;9.730;2023-11-21T02:15:10;8.70;99.90
16736;DHT22;17990;49.548;9.730;2023-11-21T02:17:41;8.70;99.90
16736;DHT22;17990;49.548;9.730;2023-11-21T02:20:11;8.80;99.90
16736;DHT22;17990;49.548;9.730;2023-11-21T02:22:41;8.80;99.90
16736;DHT22;17990;49.548;9.730;2023-11-21T02:25:09;8.80;99.90
16736;DHT22;17990;49.548;9.730;2023-11-21T02:27:36;8.70;99.90
16736;DHT22;17990;49.548;9.730;2023-11-21T02:30:03;8.70;99.90
16736;DHT22;17990;49.548;9.730;2023-11-21T02:32:30;8.70;99.90
16736;DHT22;17990;49.548;9.730;2023-11-21T02:34:57;8.80;99.90
16736;DHT22;17990;49.548;9.730;2023-11-21T02:37:27;8.80;99.90
16736;DHT22;17990;49.548;9.730;2023-11-21T02:39:53;8.70;99.90
16736;DHT22;17990;49.548;9.730;2023-11-21T02:42:21;8.70;99.90
16736;DHT22;17990;49.548;9.730;2023-11-21T02:44:48;8.60;99.90
16736;DHT22;17990;49.548;9.730;2023-11-21T02:47:15;8.70;99.90
16736;DHT22;17990;49.548;9.730;2023-11-21T02:49:41;8.70;99.90
16736;DHT22;17990;49.548;9.730;2023-11-21T02:52:08;8.70;99.90
16736;DHT22;17990;49.548;9.730;2023-11-21T02:54:35;8.70;99.90
16736;DHT22;17990;49.548;9.730;2023-11-21T02:57:01;8.70;99.90
16736;DHT22;17990;49.548;9.730;2023-11-21T02:59:30;8.80;99.90
16736;DHT22;17990;49.548;9.730;2023-11-21T03:01:56;8.80;99.90
16736;DHT22;17990;49.548;9.730;2023-11-21T03:04:23;8.80;99.90
16736;DHT22;17990;49.548;9.730;2023-11-21T03:06:51;8.70;99.90
16736;DHT22;17990;49.548;9.730;2023-11-21T03:09:18;8.70;99.90
16736;DHT22;17990;49.548;9.730;2023-11-21T03:11:45;8.80;99.90
16736;DHT22;17990;49.548;9.730;2023-11-21T03:14:12;8.80;99.90
16736;DHT22;17990;49.548;9.730;2023-11-21T03:16:40;8.70;99.90
16736;DHT22;17990;49.548;9.730;2023-11-21T03:19:07;8.80;99.90
16736;DHT22;17990;49.548;9.730;2023-11-21T03:21:34;8.80;99.90
16736;DHT22;17990;49.548;9.730;2023-11-21T03:24:01;8.80;99.90
16736;DHT22;17990;49.548;9.730;2023-11-21T03:26:28;8.80;99.90
16736;DHT22;17990;49.548;9.730;2023-11-21T03:28:55;8.80;99.90
16736;DHT22;17990;49.548;9.730;2023-11-21T03:31:21;8.80;99.90
16736;DHT22;17990;49.548;9.730;2023-11-21T03:33:49;8.80;99.90
16736;DHT22;17990;49.548;9.730;2023-11-21T03:36:18;8.80;99.90
16736;DHT22;17990;49.548;9.730;2023-11-21T03:38:44;8.80;99.90
16736;DHT22;17990;49.548;9.730;2023-11-21T03:41:11;8.80;99.90
16736;DHT22;17990;49.548;9.730;2023-11-21T03:43:38;8.80;99.90
16736;DHT22;17990;49.548;9.730;2023-11-21T03:46:05;8.80;99.90
16736;DHT22;17990;49.548;9.730;2023-11-21T03:48:32;8.70;99.90
16736;DHT22;17990;49.548;9.730;2023-11-21T03:51:00;8.70;99.90
16736;DHT22;17990;49.548;9.730;2023-11-21T03:53:27;8.80;99.90
16736;DHT22;17990;49.548;9.730;2023-11-21T03:55:54;8.80;99.90
16736;DHT22;17990;49.548;9.730;2023-11-21T03:58:21;8.80;99.90
16736;DHT22;17990;49.548;9.730;2023-11-21T04:00:48;8.80;99.90
16736;DHT22;17990;49.548;9.730;2023-11-21T04:03:15;8.80;99.90
16736;DHT22;17990;49.548;9.730;2023-11-21T04:05:42;8.70;99.90
16736;DHT22;17990;49.548;9.730;2023-11-21T04:08:10;8.70;99.90
16736;DHT22;17990;49.548;9.730;2023-11-21T04:10:36;8.70;99.90
16736;DHT22;17990;49.548;9.730;2023-11-21T04:13:05;8.60;99.90
16736;DHT22;17990;49.548;9.730;2023-11-21T04:15:32;8.60;99.90
16736;DHT22;17990;49.548;9.730;2023-11-21T04:17:58;8.60;99.90
16736;DHT22;17990;49.548;9.730;2023-11-21T04:20:25;8.60;99.90
16736;DHT22;17990;49.548;9.730;2023-11-21T04:22:52;8.70;99.90
16736;DHT22;17990;49.548;9.730;2023-11-21T04:25:20;8.70;99.90
16736;DHT22;17990;49.548;9.730;2023-11-21T04:27:48;8.70;99.90
16736;DHT22;17990;49.548;9.730;2023-11-21T04:30:15;8.70;99.90
16736;DHT22;17990;49.548;9.730;2023-11-21T04:32:42;8.80;99.90
16736;DHT22;17990;49.548;9.730;2023-11-21T04:35:09;8.80;99.90
16736;DHT22;17990;49.548;9.730;2023-11-21T04:37:36;8.80;99.90
16736;DHT22;17990;49.548;9.730;2023-11-21T04:40:03;8.80;99.90
16736;DHT22;17990;49.548;9.730;2023-11-21T04:42:34;8.80;99.90
16736;DHT22;17990;49.548;9.730;2023-11-21T04:45:01;8.80;99.90
16736;DHT22;17990;49.548;9.730;2023-11-21T04:47:30;8.80;99.90
16736;DHT22;17990;49.548;9.730;2023-11-21T04:49:57;8.70;99.90
16736;DHT22;17990;49.548;9.730;2023-11-21T04:52:24;8.70;99.90
16736;DHT22;17990;49.548;9.730;2023-11-21T04:54:50;8.70;99.90
16736;DHT22;17990;49.548;9.730;2023-11-21T04:57:19;8.70;99.90
16736;DHT22;17990;49.548;9.730;2023-11-21T04:59:48;8.70;99.90
16736;DHT22;17990;49.548;9.730;2023-11-21T05:02:15;8.70;99.90
16736;DHT22;17990;49.548;9.730;2023-11-21T05:04:44;8.70;99.90
16736;DHT22;17990;49.548;9.730;2023-11-21T05:07:11;8.60;99.90
16736;DHT22;17990;49.548;9.730;2023-11-21T05:09:41;8.60;99.90
16736;DHT22;17990;49.548;9.730;2023-11-21T05:12:09;8.60;99.90
16736;DHT22;17990;49.548;9.730;2023-11-21T05:14:36;8.60;99.90
16736;DHT22;17990;49.548;9.730;2023-11-21T05:17:04;8.60;99.90
16736;DHT22;17990;49.548;9.730;2023-11-21T05:19:33;8.60;99.90
16736;DHT22;17990;49.548;9.730;2023-11-21T05:22:00;8.60;99.90
16736;DHT22;17990;49.548;9.730;2023-11-21T05:24:27;8.60;99.90
16736;DHT22;17990;49.548;9.730;2023-11-21T05:26:54;8.70;99.90
16736;DHT22;17990;49.548;9.730;2023-11-21T05:29:21;8.70;99.90
16736;DHT22;17990;49.548;9.730;2023-11-21T05:31:48;8.70;99.90
16736;DHT22;17990;49.548;9.730;2023-11-21T05:34:16;8.70;99.90
16736;DHT22;17990;49.548;9.730;2023-11-21T05:36:43;8.80;99.90
16736;DHT22;17990;49.548;9.730;2023-11-21T05:39:11;8.80;99.90
16736;DHT22;17990;49.548;9.730;2023-11-21T05:41:37;8.80;99.90
16736;DHT22;17990;49.548;9.730;2023-11-21T05:44:04;8.70;99.90
16736;DHT22;17990;49.548;9.730;2023-11-21T05:46:31;8.70;99.90
16736;DHT22;17990;49.548;9.730;2023-11-21T05:48:58;8.80;99.90
16736;DHT22;17990;49.548;9.730;2023-11-21T05:51:26;8.70;99.90
16736;DHT22;17990;49.548;9.730;2023-11-21T05:53:53;8.70;99.90
16736;DHT22;17990;49.548;9.730;2023-11-21T05:56:19;8.80;99.90
16736;DHT22;17990;49.548;9.730;2023-11-21T05:58:46;8.70;99.90
16736;DHT22;17990;49.548;9.730;2023-11-21T06:01:13;8.80;99.90
16736;DHT22;17990;49.548;9.730;2023-11-21T06:03:40;8.70;99.90
16736;DHT22;17990;49.548;9.730;2023-11-21T06:06:07;8.70;99.90
16736;DHT22;17990;49.548;9.730;2023-11-21T06:08:35;8.70;99.90
16736;DHT22;17990;49.548;9.730;2023-11-21T06:11:02;8.70;99.90
16736;DHT22;17990;49.548;9.730;2023-11-21T06:13:29;8.70;99.90
16736;DHT22;17990;49.548;9.730;2023-11-21T06:15:56;8.70;99.90
16736;DHT22;17990;49.548;9.730;2023-11-21T06:18:22;8.70;99.90
16736;DHT22;17990;49.548;9.730;2023-11-21T06:20:49;8.70;99.90
16736;DHT22;17990;49.548;9.730;2023-11-21T06:23:17;8.70;99.90
16736;DHT22;17990;49.548;9.730;2023-11-21T06:25:45;8.70;99.90
16736;DHT22;17990;49.548;9.730;2023-11-21T06:28:12;8.70;99.90
16736;DHT22;17990;49.548;9.730;2023-11-21T06:30:42;8.70;99.90
16736;DHT22;17990;49.548;9.730;2023-11-21T06:33:09;8.70;99.90
16736;DHT22;17990;49.548;9.730;2023-11-21T06:35:36;8.70;99.90
16736;DHT22;17990;49.548;9.730;2023-11-21T06:38:03;8.60;99.90
16736;DHT22;17990;49.548;9.730;2023-11-21T06:40:30;8.60;99.90
16736;DHT22;17990;49.548;9.730;2023-11-21T06:42:58;8.60;99.90
16736;DHT22;17990;49.548;9.730;2023-11-21T06:45:25;8.60;99.90
16736;DHT22;17990;49.548;9.730;2023-11-21T06:47:51;8.60;99.90
16736;DHT22;17990;49.548;9.730;2023-11-21T06:50:18;8.60;99.90
16736;DHT22;17990;49.548;9.730;2023-11-21T06:52:45;8.70;99.90
16736;DHT22;17990;49.548;9.730;2023-11-21T06:55:12;8.70;99.90
16736;DHT22;17990;49.548;9.730;2023-11-21T06:57:39;8.70;99.90
16736;DHT22;17990;49.548;9.730;2023-11-21T07:00:08;8.80;99.90
16736;DHT22;17990;49.548;9.730;2023-11-21T07:02:35;8.80;99.90
16736;DHT22;17990;49.548;9.730;2023-11-21T07:05:02;8.80;99.90
16736;DHT22;17990;49.548;9.730;2023-11-21T07:07:29;8.80;99.90
16736;DHT22;17990;49.548;9.730;2023-11-21T07:09:55;8.90;99.90
16736;DHT22;17990;49.548;9.730;2023-11-21T07:12:22;8.90;99.90
16736;DHT22;17990;49.548;9.730;2023-11-21T07:14:51;8.80;99.90
16736;DHT22;17990;49.548;9.730;2023-11-21T07:17:19;8.90;99.90
16736;DHT22;17990;49.548;9.730;2023-11-21T07:19:48;8.80;99.90
16736;DHT22;17990;49.548;9.730;2023-11-21T07:22:15;8.80;99.90
16736;DHT22;17990;49.548;9.730;2023-11-21T07:24:48;8.80;99.90
16736;DHT22;17990;49.548;9.730;2023-11-21T07:27:15;8.80;99.90
16736;DHT22;17990;49.548;9.730;2023-11-21T07:29:42;8.80;99.90
16736;DHT22;17990;49.548;9.730;2023-11-21T07:32:08;8.80;99.90
16736;DHT22;17990;49.548;9.730;2023-11-21T07:34:37;8.80;99.90
16736;DHT22;17990;49.548;9.730;2023-11-21T07:37:03;8.80;99.90
16736;DHT22;17990;49.548;9.730;2023-11-21T07:39:30;8.90;99.90
16736;DHT22;17990;49.548;9.730;2023-11-21T07:41:57;8.90;99.90
16736;DHT22;17990;49.548;9.730;2023-11-21T07:44:24;9.00;99.90
16736;DHT22;17990;49.548;9.730;2023-11-21T07:46:51;9.00;99.90
16736;DHT22;17990;49.548;9.730;2023-11-21T07:49:22;9.10;99.90
16736;DHT22;17990;49.548;9.730;2023-11-21T07:51:50;9.20;99.90
16736;DHT22;17990;49.548;9.730;2023-11-21T07:54:18;9.30;99.90
16736;DHT22;17990;49.548;9.730;2023-11-21T07:56:45;9.40;99.90
16736;DHT22;17990;49.548;9.730;2023-11-21T07:59:11;9.40;99.90
16736;DHT22;17990;49.548;9.730;2023-11-21T08:01:39;9.50;99.90
16736;DHT22;17990;49.548;9.730;2023-11-21T08:04:08;9.50;99.90
16736;DHT22;17990;49.548;9.730;2023-11-21T08:06:35;9.50;99.90
16736;DHT22;17990;49.548;9.730;2023-11-21T08:09:03;9.60;99.90
16736;DHT22;17990;49.548;9.730;2023-11-21T08:11:30;9.60;99.90
16736;DHT22;17990;49.548;9.730;2023-11-21T08:13:58;9.60;99.90
16736;DHT22;17990;49.548;9.730;2023-11-21T08:16:25;9.70;99.90
16736;DHT22;17990;49.548;9.730;2023-11-21T08:18:53;9.70;99.90
16736;DHT22;17990;49.548;9.730;2023-11-21T08:21:19;9.70;99.90
16736;DHT22;17990;49.548;9.730;2023-11-21T08:23:46;9.70;99.90
16736;DHT22;17990;49.548;9.730;2023-11-21T08:26:20;9.70;99.90
16736;DHT22;17990;49.548;9.730;2023-11-21T08:28:47;9.80;99.90
16736;DHT22;17990;49.548;9.730;2023-11-21T08:31:13;9.70;99.90
16736;DHT22;17990;49.548;9.730;2023-11-21T08:33:41;9.80;99.90
16736;DHT22;17990;49.548;9.730;2023-11-21T08:36:08;9.80;99.90
16736;DHT22;17990;49.548;9.730;2023-11-21T08:38:36;9.80;99.90
16736;DHT22;17990;49.548;9.730;2023-11-21T08:41:04;9.70;99.90
16736;DHT22;17990;49.548;9.730;2023-11-21T08:43:34;9.70;99.90
16736;DHT22;17990;49.548;9.730;2023-11-21T08:46:01;9.60;99.90
16736;DHT22;17990;49.548;9.730;2023-11-21T08:48:28;9.70;99.90
16736;DHT22;17990;49.548;9.730;2023-11-21T08:50:55;9.60;99.90
16736;DHT22;17990;49.548;9.730;2023-11-21T08:53:22;9.60;99.90
16736;DHT22;17990;49.548;9.730;2023-11-21T08:55:48;9.50;99.90
16736;DHT22;17990;49.548;9.730;2023-11-21T08:58:15;9.50;99.90
16736;DHT22;17990;49.548;9.730;2023-11-21T09:00:44;9.40;99.90
16736;DHT22;17990;49.548;9.730;2023-11-21T09:03:11;9.40;99.90
16736;DHT22;17990;49.548;9.730;2023-11-21T09:05:38;9.40;99.90
16736;DHT22;17990;49.548;9.730;2023-11-21T09:08:05;9.50;99.90
16736;DHT22;17990;49.548;9.730;2023-11-21T09:10:32;9.50;99.90
16736;DHT22;17990;49.548;9.730;2023-11-21T09:13:01;9.60;99.90
16736;DHT22;17990;49.548;9.730;2023-11-21T09:15:28;9.70;99.90
16736;DHT22;17990;49.548;9.730;2023-11-21T09:17:56;9.70;99.90
16736;DHT22;17990;49.548;9.730;2023-11-21T09:20:23;9.80;99.90
16736;DHT22;17990;49.548;9.730;2023-11-21T09:22:50;9.80;99.90
16736;DHT22;17990;49.548;9.730;2023-11-21T09:25:17;9.90;99.90
16736;DHT22;17990;49.548;9.730;2023-11-21T09:27:44;9.90;99.90
16736;DHT22;17990;49.548;9.730;2023-11-21T09:30:12;10.00;99.90
16736;DHT22;17990;49.548;9.730;2023-11-21T09:32:39;10.10;99.90
16736;DHT22;17990;49.548;9.730;2023-11-21T09:35:08;10.10;99.90
16736;DHT22;17990;49.548;9.730;2023-11-21T09:37:36;10.30;99.90
16736;DHT22;17990;49.548;9.730;2023-11-21T09:40:04;10.50;99.90
16736;DHT22;17990;49.548;9.730;2023-11-21T09:42:40;10.60;99.90
16736;DHT22;17990;49.548;9.730;2023-11-21T09:45:15;10.70;99.90
16736;DHT22;17990;49.548;9.730;2023-11-21T09:47:43;10.70;99.90
16736;DHT22;17990;49.548;9.730;2023-11-21T09:50:14;10.70;99.90
16736;DHT22;17990;49.548;9.730;2023-11-21T09:52:49;10.70;99.90
16736;DHT22;17990;49.548;9.730;2023-11-21T09:55:18;10.80;99.90
16736;DHT22;17990;49.548;9.730;2023-11-21T09:57:47;10.70;99.90
16736;DHT22;17990;49.548;9.730;2023-11-21T10:00:15;10.70;99.90
16736;DHT22;17990;49.548;9.730;2023-11-21T10:02:43;10.70;99.90
16736;DHT22;17990;49.548;9.730;2023-11-21T10:05:11;10.70;99.90
16736;DHT22;17990;49.548;9.730;2023-11-21T10:07:39;10.80;99.90
16736;DHT22;17990;49.548;9.730;2023-11-21T10:10:07;10.90;99.90
16736;DHT22;17990;49.548;9.730;2023-11-21T10:12:35;10.90;99.90
16736;DHT22;17990;49.548;9.730;2023-11-21T10:15:08;10.90;99.90
16736;DHT22;17990;49.548;9.730;2023-11-21T10:17:36;11.00;99.90
16736;DHT22;17990;49.548;9.730;2023-11-21T10:20:07;11.00;99.90
16736;DHT22;17990;49.548;9.730;2023-11-21T10:22:38;11.10;99.90
16736;DHT22;17990;49.548;9.730;2023-11-21T10:25:07;11.10;99.90
16736;DHT22;17990;49.548;9.730;2023-11-21T10:27:34;11.00;99.90
16736;DHT22;17990;49.548;9.730;2023-11-21T10:30:01;11.10;99.90
16736;DHT22;17990;49.548;9.730;2023-11-21T10:32:28;11.10;99.90
16736;DHT22;17990;49.548;9.730;2023-11-21T10:34:57;11.20;99.90
16736;DHT22;17990;49.548;9.730;2023-11-21T10:37:25;11.20;99.90
16736;DHT22;17990;49.548;9.730;2023-11-21T10:39:58;11.20;99.90
16736;DHT22;17990;49.548;9.730;2023-11-21T10:42:25;11.30;99.90
16736;DHT22;17990;49.548;9.730;2023-11-21T10:44:52;11.20;99.90
16736;DHT22;17990;49.548;9.730;2023-11-21T10:47:19;11.40;99.90
16736;DHT22;17990;49.548;9.730;2023-11-21T10:49:48;11.50;99.90
16736;DHT22;17990;49.548;9.730;2023-11-21T10:52:16;11.60;99.90
16736;DHT22;17990;49.548;9.730;2023-11-21T10:54:46;11.50;99.90
16736;DHT22;17990;49.548;9.730;2023-11-21T10:57:17;11.30;99.90
16736;DHT22;17990;49.548;9.730;2023-11-21T10:59:47;11.30;99.90
16736;DHT22;17990;49.548;9.730;2023-11-21T11:02:21;11.20;99.90
16736;DHT22;17990;49.548;9.730;2023-11-21T11:04:51;11.10;99.90
16736;DHT22;17990;49.548;9.730;2023-11-21T11:07:20;10.90;99.90
16736;DHT22;17990;49.548;9.730;2023-11-21T11:09:48;10.80;99.90
16736;DHT22;17990;49.548;9.730;2023-11-21T11:12:16;10.90;99.90
16736;DHT22;17990;49.548;9.730;2023-11-21T11:14:44;10.90;99.90
16736;DHT22;17990;49.548;9.730;2023-11-21T11:17:11;10.90;99.90
16736;DHT22;17990;49.548;9.730;2023-11-21T11:19:39;11.00;99.90
16736;DHT22;17990;49.548;9.730;2023-11-21T11:22:13;11.10;99.90
16736;DHT22;17990;49.548;9.730;2023-11-21T11:24:57;11.10;99.90
16736;DHT22;17990;49.548;9.730;2023-11-21T11:27:34;11.00;99.90
16736;DHT22;17990;49.548;9.730;2023-11-21T11:30:11;11.10;99.90
16736;DHT22;17990;49.548;9.730;2023-11-21T11:32:50;11.00;99.90
16736;DHT22;17990;49.548;9.730;2023-11-21T11:35:26;11.00;99.90
16736;DHT22;17990;49.548;9.730;2023-11-21T11:37:58;10.90;99.90
16736;DHT22;17990;49.548;9.730;2023-11-21T11:40:38;10.80;99.90
16736;DHT22;17990;49.548;9.730;2023-11-21T11:43:07;10.80;99.90
16736;DHT22;17990;49.548;9.730;2023-11-21T11:45:34;10.90;99.90
16736;DHT22;17990;49.548;9.730;2023-11-21T11:48:01;11.00;99.90
16736;DHT22;17990;49.548;9.730;2023-11-21T11:50:29;11.10;99.90
16736;DHT22;17990;49.548;9.730;2023-11-21T11:53:12;11.20;99.90
16736;DHT22;17990;49.548;9.730;2023-11-21T11:55:39;11.20;99.90
16736;DHT22;17990;49.548;9.730;2023-11-21T11:58:07;11.20;99.90
16736;DHT22;17990;49.548;9.730;2023-11-21T12:00:35;11.20;99.90
16736;DHT22;17990;49.548;9.730;2023-11-21T12:03:06;11.10;99.90
16736;DHT22;17990;49.548;9.730;2023-11-21T12:05:34;11.10;99.90
16736;DHT22;17990;49.548;9.730;2023-11-21T12:08:05;11.00;99.90
16736;DHT22;17990;49.548;9.730;2023-11-21T12:10:34;11.00;99.90
16736;DHT22;17990;49.548;9.730;2023-11-21T12:13:02;11.10;99.90
16736;DHT22;17990;49.548;9.730;2023-11-21T12:15:32;11.20;99.90
16736;DHT22;17990;49.548;9.730;2023-11-21T12:17:59;11.20;99.90
16736;DHT22;17990;49.548;9.730;2023-11-21T12:20:26;11.30;99.90
16736;DHT22;17990;49.548;9.730;2023-11-21T12:22:54;11.40;99.90
16736;DHT22;17990;49.548;9.730;2023-11-21T12:25:22;11.50;99.90
16736;DHT22;17990;49.548;9.730;2023-11-21T12:27:50;11.50;99.90
16736;DHT22;17990;49.548;9.730;2023-11-21T12:30:18;11.50;99.90
16736;DHT22;17990;49.548;9.730;2023-11-21T12:32:48;11.50;99.90
16736;DHT22;17990;49.548;9.730;2023-11-21T12:35:17;11.50;99.90
16736;DHT22;17990;49.548;9.730;2023-11-21T12:37:45;11.50;99.90
16736;DHT22;17990;49.548;9.730;2023-11-21T12:40:12;11.50;99.90
16736;DHT22;17990;49.548;9.730;2023-11-21T12:42:41;11.50;99.90
16736;DHT22;17990;49.548;9.730;2023-11-21T12:45:10;11.40;99.90
16736;DHT22;17990;49.548;9.730;2023-11-21T12:47:41;11.40;99.90
16736;DHT22;17990;49.548;9.730;2023-11-21T12:50:10;11.40;99.90
16736;DHT22;17990;49.548;9.730;2023-11-21T12:52:44;11.30;99.90
16736;DHT22;17990;49.548;9.730;2023-11-21T12:55:15;11.40;99.90
16736;DHT22;17990;49.548;9.730;2023-11-21T12:57:43;11.40;99.90
16736;DHT22;17990;49.548;9.730;2023-11-21T13:00:11;11.50;99.90
16736;DHT22;17990;49.548;9.730;2023-11-21T13:02:51;11.50;99.90
16736;DHT22;17990;49.548;9.730;2023-11-21T13:05:25;11.60;99.90
16736;DHT22;17990;49.548;9.730;2023-11-21T13:07:53;11.60;99.90
16736;DHT22;17990;49.548;9.730;2023-11-21T13:10:23;11.70;99.90
16736;DHT22;17990;49.548;9.730;2023-11-21T13:12:52;11.80;99.90
16736;DHT22;17990;49.548;9.730;2023-11-21T13:15:20;11.80;99.90
16736;DHT22;17990;49.548;9.730;2023-11-21T13:17:47;11.80;99.90
16736;DHT22;17990;49.548;9.730;2023-11-21T13:20:15;11.80;99.90
16736;DHT22;17990;49.548;9.730;2023-11-21T13:22:51;11.80;99.90
16736;DHT22;17990;49.548;9.730;2023-11-21T13:25:20;11.70;99.90
16736;DHT22;17990;49.548;9.730;2023-11-21T13:27:47;11.70;99.90
16736;DHT22;17990;49.548;9.730;2023-11-21T13:30:14;11.60;99.90
16736;DHT22;17990;49.548;9.730;2023-11-21T13:32:42;11.60;99.90
16736;DHT22;17990;49.548;9.730;2023-11-21T13:35:09;11.40;99.90
16736;DHT22;17990;49.548;9.730;2023-11-21T13:37:47;11.40;99.90
16736;DHT22;17990;49.548;9.730;2023-11-21T13:40:15;11.50;99.90
16736;DHT22;17990;49.548;9.730;2023-11-21T13:42:48;11.70;99.90
16736;DHT22;17990;49.548;9.730;2023-11-21T13:45:19;11.90;99.90
16736;DHT22;17990;49.548;9.730;2023-11-21T13:47:46;12.00;99.90
16736;DHT22;17990;49.548;9.730;2023-11-21T13:50:12;12.10;99.90
16736;DHT22;17990;49.548;9.730;2023-11-21T13:52:47;12.30;99.90
16736;DHT22;17990;49.548;9.730;2023-11-21T13:55:16;12.40;99.90
16736;DHT22;17990;49.548;9.730;2023-11-21T13:57:43;12.40;99.90
16736;DHT22;17990;49.548;9.730;2023-11-21T14:00:15;12.50;99.90
16736;DHT22;17990;49.548;9.730;2023-11-21T14:03:03;12.60;99.90
16736;DHT22;17990;49.548;9.730;2023-11-21T14:05:34;12.70;99.90
16736;DHT22;17990;49.548;9.730;2023-11-21T14:08:01;12.70;99.90
16736;DHT22;17990;49.548;9.730;2023-11-21T14:10:32;12.70;99.90
16736;DHT22;17990;49.548;9.730;2023-11-21T14:13:05;12.70;99.90
16736;DHT22;17990;49.548;9.730;2023-11-21T14:15:32;12.70;99.90
16736;DHT22;17990;49.548;9.730;2023-11-21T14:18:03;12.80;99.90
16736;DHT22;17990;49.548;9.730;2023-11-21T14:20:33;12.60;99.90
16736;DHT22;17990;49.548;9.730;2023-11-21T14:23:01;12.60;99.90
16736;DHT22;17990;49.548;9.730;2023-11-21T14:25:28;12.50;99.90
16736;DHT22;17990;49.548;9.730;2023-11-21T14:27:56;12.50;99.90
16736;DHT22;17990;49.548;9.730;2023-11-21T14:30:23;12.40;99.90
16736;DHT22;17990;49.548;9.730;2023-11-21T14:32:50;12.30;99.90
16736;DHT22;17990;49.548;9.730;2023-11-21T14:35:17;12.10;99.90
16736;DHT22;17990;49.548;9.730;2023-11-21T14:37:44;12.00;99.90
16736;DHT22;17990;49.548;9.730;2023-11-21T14:40:12;11.90;99.90
16736;DHT22;17990;49.548;9.730;2023-11-21T14:42:41;11.70;99.90
16736;DHT22;17990;49.548;9.730;2023-11-21T14:45:10;11.70;99.90
16736;DHT22;17990;49.548;9.730;2023-11-21T14:47:38;11.60;99.90
16736;DHT22;17990;49.548;9.730;2023-11-21T14:50:09;11.50;99.90
16736;DHT22;17990;49.548;9.730;2023-11-21T14:53:04;11.50;99.90
16736;DHT22;17990;49.548;9.730;2023-11-21T14:55:31;11.40;99.90
16736;DHT22;17990;49.548;9.730;2023-11-21T14:58:06;11.30;99.90
16736;DHT22;17990;49.548;9.730;2023-11-21T15:00:39;11.30;99.90
16736;DHT22;17990;49.548;9.730;2023-11-21T15:03:10;11.20;99.90
16736;DHT22;17990;49.548;9.730;2023-11-21T15:05:48;11.10;99.90
16736;DHT22;17990;49.548;9.730;2023-11-21T15:08:14;11.10;99.90
16736;DHT22;17990;49.548;9.730;2023-11-21T15:10:47;11.00;99.90
16736;DHT22;17990;49.548;9.730;2023-11-21T15:13:15;11.00;99.90
16736;DHT22;17990;49.548;9.730;2023-11-21T15:15:43;11.00;99.90
16736;DHT22;17990;49.548;9.730;2023-11-21T15:18:10;10.90;99.90
16736;DHT22;17990;49.548;9.730;2023-11-21T15:20:37;10.80;99.90
16736;DHT22;17990;49.548;9.730;2023-11-21T15:23:05;10.70;99.90
16736;DHT22;17990;49.548;9.730;2023-11-21T15:25:32;10.60;99.90
16736;DHT22;17990;49.548;9.730;2023-11-21T15:27:59;10.50;99.90
16736;DHT22;17990;49.548;9.730;2023-11-21T15:30:26;10.40;99.90
16736;DHT22;17990;49.548;9.730;2023-11-21T15:32:54;10.30;99.90
16736;DHT22;17990;49.548;9.730;2023-11-21T15:35:21;10.30;99.90
16736;DHT22;17990;49.548;9.730;2023-11-21T15:37:49;10.20;99.90
16736;DHT22;17990;49.548;9.730;2023-11-21T15:40:16;10.10;99.90
16736;DHT22;17990;49.548;9.730;2023-11-21T15:42:43;10.10;99.90
16736;DHT22;17990;49.548;9.730;2023-11-21T15:45:10;10.00;99.90
16736;DHT22;17990;49.548;9.730;2023-11-21T15:47:37;9.90;99.90